sensor_id;sensor_type;location;lat;lon;timestamp;P1;durP1;ratioP1;P2;durP2;ratioP2
76396;SDS011;66045;51.622;5.526;2022-12-18T00:01:15;12.95;;;8.50;;
76396;SDS011;66045;51.622;5.526;2022-12-18T00:04:07;11.30;;;8.30;;
76396;SDS011;66045;51.622;5.526;2022-12-18T00:06:46;14.38;;;9.77;;
76396;SDS011;66045;51.622;5.526;2022-12-18T00:09:12;10.90;;;8.63;;
76396;SDS011;66045;51.622;5.526;2022-12-18T00:11:37;11.70;;;8.23;;
76396;SDS011;66045;51.622;5.526;2022-12-18T00:14:02;12.77;;;8.98;;
76396;SDS011;66045;51.622;5.526;2022-12-18T00:16:28;12.38;;;9.20;;
76396;SDS011;66045;51.622;5.526;2022-12-18T00:18:56;12.32;;;8.82;;
76396;SDS011;66045;51.622;5.526;2022-12-18T00:21:22;11.07;;;8.77;;
76396;SDS011;66045;51.622;5.526;2022-12-18T00:23:48;12.15;;;8.85;;
76396;SDS011;66045;51.622;5.526;2022-12-18T00:26:28;12.13;;;9.30;;
76396;SDS011;66045;51.622;5.526;2022-12-18T00:28:55;11.68;;;9.15;;
76396;SDS011;66045;51.622;5.526;2022-12-18T00:31:24;13.27;;;9.18;;
76396;SDS011;66045;51.622;5.526;2022-12-18T00:33:50;12.32;;;8.55;;
76396;SDS011;66045;51.622;5.526;2022-12-18T00:36:20;12.45;;;9.55;;
76396;SDS011;66045;51.622;5.526;2022-12-18T00:38:46;11.45;;;8.88;;
76396;SDS011;66045;51.622;5.526;2022-12-18T00:41:14;11.18;;;8.65;;
76396;SDS011;66045;51.622;5.526;2022-12-18T00:44:03;10.75;;;8.80;;
76396;SDS011;66045;51.622;5.526;2022-12-18T00:46:30;10.93;;;8.80;;
76396;SDS011;66045;51.622;5.526;2022-12-18T00:48:56;12.07;;;8.82;;
76396;SDS011;66045;51.622;5.526;2022-12-18T00:51:21;11.43;;;9.02;;
76396;SDS011;66045;51.622;5.526;2022-12-18T00:53:47;11.63;;;8.70;;
76396;SDS011;66045;51.622;5.526;2022-12-18T00:56:12;11.00;;;8.45;;
76396;SDS011;66045;51.622;5.526;2022-12-18T00:58:38;11.30;;;8.90;;
76396;SDS011;66045;51.622;5.526;2022-12-18T01:01:04;10.93;;;8.45;;
76396;SDS011;66045;51.622;5.526;2022-12-18T01:03:30;11.63;;;8.30;;
76396;SDS011;66045;51.622;5.526;2022-12-18T01:05:56;11.85;;;8.63;;
76396;SDS011;66045;51.622;5.526;2022-12-18T01:08:21;11.55;;;9.25;;
76396;SDS011;66045;51.622;5.526;2022-12-18T01:10:47;11.15;;;8.48;;
76396;SDS011;66045;51.622;5.526;2022-12-18T01:13:12;11.95;;;9.30;;
76396;SDS011;66045;51.622;5.526;2022-12-18T01:15:37;11.32;;;8.82;;
76396;SDS011;66045;51.622;5.526;2022-12-18T01:18:03;11.02;;;8.93;;
76396;SDS011;66045;51.622;5.526;2022-12-18T01:20:28;13.20;;;9.32;;
76396;SDS011;66045;51.622;5.526;2022-12-18T01:22:53;10.77;;;8.43;;
76396;SDS011;66045;51.622;5.526;2022-12-18T01:25:19;11.73;;;8.75;;
76396;SDS011;66045;51.622;5.526;2022-12-18T01:27:44;11.90;;;8.85;;
76396;SDS011;66045;51.622;5.526;2022-12-18T01:30:10;13.88;;;9.80;;
76396;SDS011;66045;51.622;5.526;2022-12-18T01:32:35;12.95;;;9.07;;
76396;SDS011;66045;51.622;5.526;2022-12-18T01:35:01;11.23;;;8.23;;
76396;SDS011;66045;51.622;5.526;2022-12-18T01:37:26;10.18;;;8.13;;
76396;SDS011;66045;51.622;5.526;2022-12-18T01:39:52;12.63;;;8.82;;
76396;SDS011;66045;51.622;5.526;2022-12-18T01:42:19;12.38;;;8.75;;
76396;SDS011;66045;51.622;5.526;2022-12-18T01:44:51;11.95;;;8.77;;
76396;SDS011;66045;51.622;5.526;2022-12-18T01:50:03;11.23;;;8.75;;
76396;SDS011;66045;51.622;5.526;2022-12-18T01:52:40;12.45;;;8.60;;
76396;SDS011;66045;51.622;5.526;2022-12-18T01:55:11;11.65;;;8.73;;
76396;SDS011;66045;51.622;5.526;2022-12-18T01:57:38;12.40;;;8.73;;
76396;SDS011;66045;51.622;5.526;2022-12-18T02:00:07;10.80;;;8.70;;
76396;SDS011;66045;51.622;5.526;2022-12-18T02:02:36;11.27;;;8.95;;
76396;SDS011;66045;51.622;5.526;2022-12-18T02:05:02;11.20;;;8.93;;
76396;SDS011;66045;51.622;5.526;2022-12-18T02:07:40;11.43;;;8.23;;
76396;SDS011;66045;51.622;5.526;2022-12-18T02:13:11;11.38;;;8.93;;
76396;SDS011;66045;51.622;5.526;2022-12-18T02:18:36;10.07;;;8.25;;
76396;SDS011;66045;51.622;5.526;2022-12-18T02:27:29;10.32;;;8.23;;
76396;SDS011;66045;51.622;5.526;2022-12-18T02:29:57;11.38;;;9.07;;
76396;SDS011;66045;51.622;5.526;2022-12-18T02:32:27;11.45;;;8.75;;
76396;SDS011;66045;51.622;5.526;2022-12-18T02:34:56;11.13;;;8.50;;
76396;SDS011;66045;51.622;5.526;2022-12-18T02:37:23;11.15;;;8.73;;
76396;SDS011;66045;51.622;5.526;2022-12-18T02:39:51;12.20;;;9.02;;
76396;SDS011;66045;51.622;5.526;2022-12-18T02:42:19;10.90;;;9.02;;
76396;SDS011;66045;51.622;5.526;2022-12-18T02:44:49;11.95;;;8.90;;
76396;SDS011;66045;51.622;5.526;2022-12-18T02:47:20;11.68;;;8.80;;
76396;SDS011;66045;51.622;5.526;2022-12-18T02:52:44;12.85;;;8.35;;
76396;SDS011;66045;51.622;5.526;2022-12-18T02:58:42;11.88;;;9.05;;
76396;SDS011;66045;51.622;5.526;2022-12-18T03:01:38;12.88;;;9.38;;
76396;SDS011;66045;51.622;5.526;2022-12-18T03:04:16;15.32;;;9.27;;
76396;SDS011;66045;51.622;5.526;2022-12-18T03:06:48;12.23;;;8.70;;
76396;SDS011;66045;51.622;5.526;2022-12-18T03:09:26;12.52;;;8.68;;
76396;SDS011;66045;51.622;5.526;2022-12-18T03:11:56;13.32;;;9.25;;
76396;SDS011;66045;51.622;5.526;2022-12-18T03:14:45;11.70;;;9.27;;
76396;SDS011;66045;51.622;5.526;2022-12-18T03:17:23;10.88;;;8.65;;
76396;SDS011;66045;51.622;5.526;2022-12-18T03:19:52;11.93;;;8.65;;
76396;SDS011;66045;51.622;5.526;2022-12-18T03:22:20;11.38;;;8.30;;
76396;SDS011;66045;51.622;5.526;2022-12-18T03:24:50;13.05;;;9.13;;
76396;SDS011;66045;51.622;5.526;2022-12-18T03:27:17;12.05;;;8.88;;
76396;SDS011;66045;51.622;5.526;2022-12-18T03:35:33;11.98;;;8.63;;
76396;SDS011;66045;51.622;5.526;2022-12-18T03:38:02;11.50;;;8.45;;
76396;SDS011;66045;51.622;5.526;2022-12-18T03:40:48;12.52;;;9.35;;
76396;SDS011;66045;51.622;5.526;2022-12-18T03:43:35;13.32;;;9.07;;
76396;SDS011;66045;51.622;5.526;2022-12-18T03:46:04;12.15;;;8.23;;
76396;SDS011;66045;51.622;5.526;2022-12-18T03:48:35;12.57;;;8.75;;
76396;SDS011;66045;51.622;5.526;2022-12-18T03:51:11;11.73;;;8.88;;
76396;SDS011;66045;51.622;5.526;2022-12-18T03:56:14;12.25;;;8.90;;
76396;SDS011;66045;51.622;5.526;2022-12-18T03:58:41;11.77;;;8.50;;
76396;SDS011;66045;51.622;5.526;2022-12-18T04:01:09;11.85;;;8.70;;
76396;SDS011;66045;51.622;5.526;2022-12-18T04:03:39;11.05;;;7.95;;
76396;SDS011;66045;51.622;5.526;2022-12-18T04:06:07;10.57;;;8.50;;
76396;SDS011;66045;51.622;5.526;2022-12-18T04:08:34;11.25;;;8.18;;
76396;SDS011;66045;51.622;5.526;2022-12-18T04:11:01;11.60;;;8.68;;
76396;SDS011;66045;51.622;5.526;2022-12-18T04:13:27;10.13;;;7.72;;
76396;SDS011;66045;51.622;5.526;2022-12-18T04:15:54;10.68;;;8.20;;
76396;SDS011;66045;51.622;5.526;2022-12-18T04:18:20;11.18;;;8.43;;
76396;SDS011;66045;51.622;5.526;2022-12-18T04:20:45;12.38;;;8.63;;
76396;SDS011;66045;51.622;5.526;2022-12-18T04:23:10;12.15;;;8.70;;
76396;SDS011;66045;51.622;5.526;2022-12-18T04:25:36;10.80;;;8.13;;
76396;SDS011;66045;51.622;5.526;2022-12-18T04:28:01;10.65;;;7.80;;
76396;SDS011;66045;51.622;5.526;2022-12-18T04:30:27;11.50;;;8.07;;
76396;SDS011;66045;51.622;5.526;2022-12-18T04:32:52;11.20;;;8.13;;
76396;SDS011;66045;51.622;5.526;2022-12-18T04:35:18;11.23;;;8.05;;
76396;SDS011;66045;51.622;5.526;2022-12-18T04:37:43;13.10;;;8.18;;
76396;SDS011;66045;51.622;5.526;2022-12-18T04:40:08;11.23;;;8.55;;
76396;SDS011;66045;51.622;5.526;2022-12-18T04:42:34;9.38;;;6.95;;
76396;SDS011;66045;51.622;5.526;2022-12-18T04:44:59;11.80;;;8.25;;
76396;SDS011;66045;51.622;5.526;2022-12-18T04:47:25;10.55;;;8.30;;
76396;SDS011;66045;51.622;5.526;2022-12-18T04:49:50;9.93;;;7.72;;
76396;SDS011;66045;51.622;5.526;2022-12-18T04:52:15;10.70;;;8.07;;
76396;SDS011;66045;51.622;5.526;2022-12-18T04:54:41;10.80;;;7.90;;
76396;SDS011;66045;51.622;5.526;2022-12-18T04:57:06;10.43;;;7.80;;
76396;SDS011;66045;51.622;5.526;2022-12-18T04:59:32;9.95;;;7.60;;
76396;SDS011;66045;51.622;5.526;2022-12-18T05:01:57;10.98;;;7.75;;
76396;SDS011;66045;51.622;5.526;2022-12-18T05:04:22;10.18;;;8.13;;
76396;SDS011;66045;51.622;5.526;2022-12-18T05:06:48;10.55;;;7.68;;
76396;SDS011;66045;51.622;5.526;2022-12-18T05:09:13;10.82;;;8.27;;
76396;SDS011;66045;51.622;5.526;2022-12-18T05:11:38;10.23;;;8.02;;
76396;SDS011;66045;51.622;5.526;2022-12-18T05:14:04;10.85;;;7.82;;
76396;SDS011;66045;51.622;5.526;2022-12-18T05:16:29;10.35;;;7.50;;
76396;SDS011;66045;51.622;5.526;2022-12-18T05:18:54;9.88;;;7.63;;
76396;SDS011;66045;51.622;5.526;2022-12-18T05:21:20;10.07;;;7.30;;
76396;SDS011;66045;51.622;5.526;2022-12-18T05:23:45;10.68;;;7.53;;
76396;SDS011;66045;51.622;5.526;2022-12-18T05:26:13;9.52;;;7.20;;
76396;SDS011;66045;51.622;5.526;2022-12-18T05:28:42;9.07;;;7.00;;
76396;SDS011;66045;51.622;5.526;2022-12-18T05:31:07;10.55;;;7.50;;
76396;SDS011;66045;51.622;5.526;2022-12-18T05:33:33;9.88;;;7.22;;
76396;SDS011;66045;51.622;5.526;2022-12-18T05:36:00;9.38;;;7.00;;
76396;SDS011;66045;51.622;5.526;2022-12-18T05:38:27;9.10;;;7.05;;
76396;SDS011;66045;51.622;5.526;2022-12-18T05:40:54;10.02;;;8.10;;
76396;SDS011;66045;51.622;5.526;2022-12-18T05:43:20;10.60;;;7.07;;
76396;SDS011;66045;51.622;5.526;2022-12-18T05:45:49;11.17;;;7.67;;
76396;SDS011;66045;51.622;5.526;2022-12-18T05:48:15;10.52;;;7.68;;
76396;SDS011;66045;51.622;5.526;2022-12-18T05:50:42;10.02;;;7.65;;
76396;SDS011;66045;51.622;5.526;2022-12-18T05:53:10;9.07;;;6.78;;
76396;SDS011;66045;51.622;5.526;2022-12-18T05:55:36;9.55;;;7.18;;
76396;SDS011;66045;51.622;5.526;2022-12-18T05:58:03;8.85;;;6.93;;
76396;SDS011;66045;51.622;5.526;2022-12-18T06:00:29;10.70;;;7.40;;
76396;SDS011;66045;51.622;5.526;2022-12-18T06:02:55;9.32;;;6.78;;
76396;SDS011;66045;51.622;5.526;2022-12-18T06:05:21;10.48;;;7.07;;
76396;SDS011;66045;51.622;5.526;2022-12-18T06:07:46;9.57;;;7.35;;
76396;SDS011;66045;51.622;5.526;2022-12-18T06:10:11;8.85;;;7.03;;
76396;SDS011;66045;51.622;5.526;2022-12-18T06:12:37;9.68;;;7.13;;
76396;SDS011;66045;51.622;5.526;2022-12-18T06:15:02;9.73;;;7.28;;
76396;SDS011;66045;51.622;5.526;2022-12-18T06:17:29;10.43;;;7.03;;
76396;SDS011;66045;51.622;5.526;2022-12-18T06:19:55;10.10;;;7.25;;
76396;SDS011;66045;51.622;5.526;2022-12-18T06:22:21;9.15;;;7.15;;
76396;SDS011;66045;51.622;5.526;2022-12-18T06:24:46;9.82;;;7.00;;
76396;SDS011;66045;51.622;5.526;2022-12-18T06:27:12;8.68;;;6.90;;
76396;SDS011;66045;51.622;5.526;2022-12-18T06:29:37;8.73;;;6.40;;
76396;SDS011;66045;51.622;5.526;2022-12-18T06:32:03;8.52;;;6.47;;
76396;SDS011;66045;51.622;5.526;2022-12-18T06:34:31;10.32;;;7.00;;
76396;SDS011;66045;51.622;5.526;2022-12-18T06:36:57;9.93;;;7.47;;
76396;SDS011;66045;51.622;5.526;2022-12-18T06:39:23;9.02;;;6.90;;
76396;SDS011;66045;51.622;5.526;2022-12-18T06:41:48;10.50;;;7.00;;
76396;SDS011;66045;51.622;5.526;2022-12-18T06:44:14;8.15;;;6.28;;
76396;SDS011;66045;51.622;5.526;2022-12-18T06:46:39;8.52;;;6.35;;
76396;SDS011;66045;51.622;5.526;2022-12-18T06:49:04;7.88;;;6.10;;
76396;SDS011;66045;51.622;5.526;2022-12-18T06:51:30;8.90;;;6.68;;
76396;SDS011;66045;51.622;5.526;2022-12-18T06:53:55;9.40;;;6.75;;
76396;SDS011;66045;51.622;5.526;2022-12-18T06:56:21;7.68;;;6.10;;
76396;SDS011;66045;51.622;5.526;2022-12-18T06:58:46;8.57;;;6.53;;
76396;SDS011;66045;51.622;5.526;2022-12-18T07:01:12;8.90;;;6.28;;
76396;SDS011;66045;51.622;5.526;2022-12-18T07:03:38;8.90;;;6.47;;
76396;SDS011;66045;51.622;5.526;2022-12-18T07:06:05;8.25;;;6.40;;
76396;SDS011;66045;51.622;5.526;2022-12-18T07:08:31;8.32;;;6.20;;
76396;SDS011;66045;51.622;5.526;2022-12-18T07:10:57;7.53;;;5.53;;
76396;SDS011;66045;51.622;5.526;2022-12-18T07:13:23;8.15;;;6.00;;
76396;SDS011;66045;51.622;5.526;2022-12-18T07:15:48;8.35;;;6.22;;
76396;SDS011;66045;51.622;5.526;2022-12-18T07:18:14;8.18;;;5.82;;
76396;SDS011;66045;51.622;5.526;2022-12-18T07:20:39;8.63;;;6.80;;
76396;SDS011;66045;51.622;5.526;2022-12-18T07:23:04;7.97;;;6.10;;
76396;SDS011;66045;51.622;5.526;2022-12-18T07:25:34;8.95;;;5.95;;
76396;SDS011;66045;51.622;5.526;2022-12-18T07:28:00;8.37;;;6.63;;
76396;SDS011;66045;51.622;5.526;2022-12-18T07:30:25;8.00;;;5.82;;
76396;SDS011;66045;51.622;5.526;2022-12-18T07:32:51;8.05;;;5.97;;
76396;SDS011;66045;51.622;5.526;2022-12-18T07:35:16;8.63;;;6.50;;
76396;SDS011;66045;51.622;5.526;2022-12-18T07:37:41;8.00;;;5.93;;
76396;SDS011;66045;51.622;5.526;2022-12-18T07:40:07;8.65;;;6.05;;
76396;SDS011;66045;51.622;5.526;2022-12-18T07:42:33;8.70;;;5.97;;
76396;SDS011;66045;51.622;5.526;2022-12-18T07:44:59;8.85;;;5.95;;
76396;SDS011;66045;51.622;5.526;2022-12-18T07:47:26;16.48;;;8.82;;
76396;SDS011;66045;51.622;5.526;2022-12-18T07:49:53;15.13;;;9.57;;
76396;SDS011;66045;51.622;5.526;2022-12-18T07:52:18;18.33;;;11.45;;
76396;SDS011;66045;51.622;5.526;2022-12-18T07:54:44;20.05;;;11.40;;
76396;SDS011;66045;51.622;5.526;2022-12-18T07:57:10;16.38;;;10.88;;
76396;SDS011;66045;51.622;5.526;2022-12-18T07:59:35;16.00;;;9.55;;
76396;SDS011;66045;51.622;5.526;2022-12-18T08:02:01;14.75;;;9.02;;
76396;SDS011;66045;51.622;5.526;2022-12-18T08:04:26;13.15;;;9.32;;
76396;SDS011;66045;51.622;5.526;2022-12-18T08:06:52;12.57;;;8.48;;
76396;SDS011;66045;51.622;5.526;2022-12-18T08:09:17;11.77;;;8.40;;
76396;SDS011;66045;51.622;5.526;2022-12-18T08:11:42;11.98;;;8.48;;
76396;SDS011;66045;51.622;5.526;2022-12-18T08:14:08;10.80;;;7.82;;
76396;SDS011;66045;51.622;5.526;2022-12-18T08:16:34;15.73;;;7.95;;
76396;SDS011;66045;51.622;5.526;2022-12-18T08:19:00;9.13;;;7.18;;
76396;SDS011;66045;51.622;5.526;2022-12-18T08:21:26;10.23;;;7.53;;
76396;SDS011;66045;51.622;5.526;2022-12-18T08:23:54;9.32;;;6.60;;
76396;SDS011;66045;51.622;5.526;2022-12-18T08:26:21;10.15;;;7.07;;
76396;SDS011;66045;51.622;5.526;2022-12-18T08:28:49;9.68;;;6.95;;
76396;SDS011;66045;51.622;5.526;2022-12-18T08:31:14;8.30;;;6.47;;
76396;SDS011;66045;51.622;5.526;2022-12-18T08:33:40;10.82;;;6.60;;
76396;SDS011;66045;51.622;5.526;2022-12-18T08:36:05;11.27;;;6.55;;
76396;SDS011;66045;51.622;5.526;2022-12-18T08:38:32;12.57;;;6.43;;
76396;SDS011;66045;51.622;5.526;2022-12-18T08:43:36;9.63;;;5.80;;
76396;SDS011;66045;51.622;5.526;2022-12-18T08:46:21;10.32;;;6.18;;
76396;SDS011;66045;51.622;5.526;2022-12-18T08:48:50;8.88;;;5.90;;
76396;SDS011;66045;51.622;5.526;2022-12-18T08:51:16;10.27;;;5.90;;
76396;SDS011;66045;51.622;5.526;2022-12-18T08:53:42;8.32;;;5.90;;
76396;SDS011;66045;51.622;5.526;2022-12-18T08:56:08;9.02;;;5.82;;
76396;SDS011;66045;51.622;5.526;2022-12-18T08:58:33;8.80;;;5.90;;
76396;SDS011;66045;51.622;5.526;2022-12-18T09:01:05;9.38;;;6.13;;
76396;SDS011;66045;51.622;5.526;2022-12-18T09:03:34;8.10;;;6.00;;
76396;SDS011;66045;51.622;5.526;2022-12-18T09:05:59;12.65;;;5.90;;
76396;SDS011;66045;51.622;5.526;2022-12-18T09:08:25;6.95;;;5.05;;
76396;SDS011;66045;51.622;5.526;2022-12-18T09:10:51;9.10;;;5.85;;
76396;SDS011;66045;51.622;5.526;2022-12-18T09:13:17;7.75;;;5.57;;
76396;SDS011;66045;51.622;5.526;2022-12-18T09:15:44;9.60;;;5.45;;
76396;SDS011;66045;51.622;5.526;2022-12-18T09:18:11;8.23;;;5.45;;
76396;SDS011;66045;51.622;5.526;2022-12-18T09:20:37;6.82;;;5.40;;
76396;SDS011;66045;51.622;5.526;2022-12-18T09:23:04;7.03;;;5.57;;
76396;SDS011;66045;51.622;5.526;2022-12-18T09:25:30;7.43;;;5.55;;
76396;SDS011;66045;51.622;5.526;2022-12-18T09:28:01;8.75;;;5.60;;
76396;SDS011;66045;51.622;5.526;2022-12-18T09:30:37;8.38;;;5.60;;
76396;SDS011;66045;51.622;5.526;2022-12-18T09:33:03;7.68;;;5.57;;
76396;SDS011;66045;51.622;5.526;2022-12-18T09:35:28;8.50;;;5.60;;
76396;SDS011;66045;51.622;5.526;2022-12-18T09:37:54;7.50;;;5.38;;
76396;SDS011;66045;51.622;5.526;2022-12-18T09:40:20;8.60;;;5.55;;
76396;SDS011;66045;51.622;5.526;2022-12-18T09:42:51;8.70;;;5.40;;
76396;SDS011;66045;51.622;5.526;2022-12-18T09:45:21;6.80;;;4.85;;
76396;SDS011;66045;51.622;5.526;2022-12-18T09:47:48;8.85;;;5.50;;
76396;SDS011;66045;51.622;5.526;2022-12-18T09:50:31;7.88;;;5.10;;
76396;SDS011;66045;51.622;5.526;2022-12-18T09:53:02;8.00;;;5.80;;
76396;SDS011;66045;51.622;5.526;2022-12-18T09:55:42;7.60;;;5.25;;
76396;SDS011;66045;51.622;5.526;2022-12-18T10:00:35;8.52;;;5.05;;
76396;SDS011;66045;51.622;5.526;2022-12-18T10:03:03;9.88;;;5.50;;
76396;SDS011;66045;51.622;5.526;2022-12-18T10:05:37;7.80;;;5.80;;
76396;SDS011;66045;51.622;5.526;2022-12-18T10:16:09;7.80;;;5.20;;
76396;SDS011;66045;51.622;5.526;2022-12-18T10:24:30;6.95;;;5.03;;
76396;SDS011;66045;51.622;5.526;2022-12-18T10:27:24;7.32;;;5.18;;
76396;SDS011;66045;51.622;5.526;2022-12-18T10:29:51;7.97;;;5.15;;
76396;SDS011;66045;51.622;5.526;2022-12-18T10:32:19;7.50;;;5.38;;
76396;SDS011;66045;51.622;5.526;2022-12-18T10:34:46;8.52;;;5.38;;
76396;SDS011;66045;51.622;5.526;2022-12-18T10:37:17;7.35;;;5.07;;
76396;SDS011;66045;51.622;5.526;2022-12-18T10:39:45;7.32;;;4.68;;
76396;SDS011;66045;51.622;5.526;2022-12-18T10:42:31;7.18;;;5.03;;
76396;SDS011;66045;51.622;5.526;2022-12-18T10:45:08;7.82;;;5.40;;
76396;SDS011;66045;51.622;5.526;2022-12-18T10:47:46;6.72;;;5.07;;
76396;SDS011;66045;51.622;5.526;2022-12-18T10:50:30;9.25;;;5.68;;
76396;SDS011;66045;51.622;5.526;2022-12-18T10:53:00;6.97;;;5.22;;
76396;SDS011;66045;51.622;5.526;2022-12-18T10:58:05;8.18;;;5.60;;
76396;SDS011;66045;51.622;5.526;2022-12-18T11:01:03;7.45;;;5.05;;
76396;SDS011;66045;51.622;5.526;2022-12-18T11:03:36;8.85;;;5.90;;
76396;SDS011;66045;51.622;5.526;2022-12-18T11:06:11;8.73;;;4.78;;
76396;SDS011;66045;51.622;5.526;2022-12-18T11:08:39;7.50;;;5.13;;
76396;SDS011;66045;51.622;5.526;2022-12-18T11:11:07;7.45;;;5.25;;
76396;SDS011;66045;51.622;5.526;2022-12-18T11:13:47;7.50;;;5.22;;
76396;SDS011;66045;51.622;5.526;2022-12-18T11:16:29;7.03;;;4.97;;
76396;SDS011;66045;51.622;5.526;2022-12-18T11:19:40;7.80;;;5.50;;
76396;SDS011;66045;51.622;5.526;2022-12-18T11:21:53;7.18;;;5.20;;
76396;SDS011;66045;51.622;5.526;2022-12-18T11:24:27;6.97;;;5.05;;
76396;SDS011;66045;51.622;5.526;2022-12-18T11:26:59;8.15;;;4.72;;
76396;SDS011;66045;51.622;5.526;2022-12-18T11:29:34;7.15;;;4.85;;
76396;SDS011;66045;51.622;5.526;2022-12-18T11:34:59;7.20;;;5.30;;
76396;SDS011;66045;51.622;5.526;2022-12-18T11:37:36;8.10;;;5.20;;
76396;SDS011;66045;51.622;5.526;2022-12-18T11:40:11;7.72;;;5.55;;
76396;SDS011;66045;51.622;5.526;2022-12-18T11:45:55;9.07;;;5.70;;
76396;SDS011;66045;51.622;5.526;2022-12-18T11:48:49;8.98;;;6.18;;
76396;SDS011;66045;51.622;5.526;2022-12-18T11:51:34;8.70;;;5.22;;
76396;SDS011;66045;51.622;5.526;2022-12-18T11:54:13;8.55;;;5.63;;
76396;SDS011;66045;51.622;5.526;2022-12-18T11:56:43;7.22;;;5.88;;
76396;SDS011;66045;51.622;5.526;2022-12-18T12:01:55;7.18;;;5.80;;
76396;SDS011;66045;51.622;5.526;2022-12-18T12:04:57;9.30;;;6.30;;
76396;SDS011;66045;51.622;5.526;2022-12-18T12:07:34;8.50;;;6.00;;
76396;SDS011;66045;51.622;5.526;2022-12-18T12:20:50;7.50;;;5.40;;
76396;SDS011;66045;51.622;5.526;2022-12-18T12:23:35;8.73;;;5.90;;
76396;SDS011;66045;51.622;5.526;2022-12-18T12:26:12;8.80;;;5.65;;
76396;SDS011;66045;51.622;5.526;2022-12-18T12:40:17;8.23;;;5.18;;
76396;SDS011;66045;51.622;5.526;2022-12-18T12:42:53;7.80;;;5.53;;
76396;SDS011;66045;51.622;5.526;2022-12-18T12:48:20;8.23;;;5.25;;
76396;SDS011;66045;51.622;5.526;2022-12-18T12:50:53;8.32;;;4.97;;
76396;SDS011;66045;51.622;5.526;2022-12-18T12:53:23;9.18;;;5.28;;
76396;SDS011;66045;51.622;5.526;2022-12-18T12:55:54;10.02;;;4.85;;
76396;SDS011;66045;51.622;5.526;2022-12-18T12:58:29;8.27;;;5.38;;
76396;SDS011;66045;51.622;5.526;2022-12-18T13:01:25;8.20;;;4.97;;
76396;SDS011;66045;51.622;5.526;2022-12-18T13:07:01;13.93;;;5.28;;
76396;SDS011;66045;51.622;5.526;2022-12-18T13:09:35;7.88;;;5.05;;
76396;SDS011;66045;51.622;5.526;2022-12-18T13:15:46;7.05;;;4.85;;
76396;SDS011;66045;51.622;5.526;2022-12-18T13:18:19;7.57;;;4.97;;
76396;SDS011;66045;51.622;5.526;2022-12-18T13:31:40;7.20;;;5.18;;
76396;SDS011;66045;51.622;5.526;2022-12-18T13:34:18;7.78;;;5.13;;
76396;SDS011;66045;51.622;5.526;2022-12-18T13:36:46;8.02;;;5.25;;
76396;SDS011;66045;51.622;5.526;2022-12-18T13:41:43;6.70;;;5.10;;
76396;SDS011;66045;51.622;5.526;2022-12-18T13:47:05;8.95;;;5.70;;
76396;SDS011;66045;51.622;5.526;2022-12-18T13:49:53;7.82;;;5.28;;
76396;SDS011;66045;51.622;5.526;2022-12-18T13:52:24;6.20;;;4.82;;
76396;SDS011;66045;51.622;5.526;2022-12-18T13:54:55;8.80;;;4.85;;
76396;SDS011;66045;51.622;5.526;2022-12-18T13:59:59;7.65;;;5.80;;
76396;SDS011;66045;51.622;5.526;2022-12-18T14:02:51;6.88;;;5.30;;
76396;SDS011;66045;51.622;5.526;2022-12-18T14:05:22;8.60;;;5.28;;
76396;SDS011;66045;51.622;5.526;2022-12-18T14:07:48;8.73;;;5.40;;
76396;SDS011;66045;51.622;5.526;2022-12-18T14:10:14;7.88;;;5.60;;
76396;SDS011;66045;51.622;5.526;2022-12-18T14:12:44;12.50;;;6.30;;
76396;SDS011;66045;51.622;5.526;2022-12-18T14:17:52;8.23;;;5.78;;
76396;SDS011;66045;51.622;5.526;2022-12-18T14:20:22;8.50;;;5.95;;
76396;SDS011;66045;51.622;5.526;2022-12-18T14:22:49;8.40;;;5.70;;
76396;SDS011;66045;51.622;5.526;2022-12-18T14:27:50;9.15;;;5.78;;
76396;SDS011;66045;51.622;5.526;2022-12-18T14:33:05;9.40;;;6.65;;
76396;SDS011;66045;51.622;5.526;2022-12-18T14:35:34;7.88;;;5.75;;
76396;SDS011;66045;51.622;5.526;2022-12-18T14:38:18;8.57;;;5.63;;
76396;SDS011;66045;51.622;5.526;2022-12-18T14:40:47;8.57;;;6.18;;
76396;SDS011;66045;51.622;5.526;2022-12-18T14:43:12;7.95;;;6.05;;
76396;SDS011;66045;51.622;5.526;2022-12-18T14:45:44;7.88;;;6.15;;
76396;SDS011;66045;51.622;5.526;2022-12-18T14:50:36;8.82;;;6.20;;
76396;SDS011;66045;51.622;5.526;2022-12-18T14:53:02;8.30;;;5.70;;
76396;SDS011;66045;51.622;5.526;2022-12-18T14:55:28;9.75;;;5.63;;
76396;SDS011;66045;51.622;5.526;2022-12-18T14:57:54;9.50;;;6.25;;
76396;SDS011;66045;51.622;5.526;2022-12-18T15:00:22;8.77;;;5.85;;
76396;SDS011;66045;51.622;5.526;2022-12-18T15:02:50;8.13;;;6.32;;
76396;SDS011;66045;51.622;5.526;2022-12-18T15:05:20;8.20;;;5.93;;
76396;SDS011;66045;51.622;5.526;2022-12-18T15:07:55;8.50;;;6.32;;
76396;SDS011;66045;51.622;5.526;2022-12-18T15:10:23;8.90;;;6.15;;
76396;SDS011;66045;51.622;5.526;2022-12-18T15:20:31;9.07;;;6.10;;
76396;SDS011;66045;51.622;5.526;2022-12-18T15:23:04;9.32;;;6.15;;
76396;SDS011;66045;51.622;5.526;2022-12-18T15:25:34;9.65;;;6.88;;
76396;SDS011;66045;51.622;5.526;2022-12-18T15:28:01;8.55;;;6.40;;
76396;SDS011;66045;51.622;5.526;2022-12-18T15:30:27;8.95;;;6.55;;
76396;SDS011;66045;51.622;5.526;2022-12-18T15:33:16;9.02;;;6.35;;
76396;SDS011;66045;51.622;5.526;2022-12-18T15:35:47;9.35;;;6.15;;
76396;SDS011;66045;51.622;5.526;2022-12-18T15:38:21;9.18;;;6.35;;
76396;SDS011;66045;51.622;5.526;2022-12-18T15:40:46;9.40;;;6.63;;
76396;SDS011;66045;51.622;5.526;2022-12-18T15:43:11;10.57;;;6.10;;
76396;SDS011;66045;51.622;5.526;2022-12-18T15:46:13;9.07;;;5.95;;
76396;SDS011;66045;51.622;5.526;2022-12-18T15:48:47;7.38;;;5.60;;
76396;SDS011;66045;51.622;5.526;2022-12-18T15:53:48;9.50;;;6.07;;
76396;SDS011;66045;51.622;5.526;2022-12-18T15:56:17;9.43;;;5.75;;
76396;SDS011;66045;51.622;5.526;2022-12-18T15:59:01;9.40;;;6.32;;
76396;SDS011;66045;51.622;5.526;2022-12-18T16:01:27;8.63;;;5.90;;
76396;SDS011;66045;51.622;5.526;2022-12-18T16:03:55;7.80;;;5.30;;
76396;SDS011;66045;51.622;5.526;2022-12-18T16:06:21;8.93;;;6.35;;
76396;SDS011;66045;51.622;5.526;2022-12-18T16:08:47;9.45;;;5.88;;
76396;SDS011;66045;51.622;5.526;2022-12-18T16:11:26;8.32;;;5.78;;
76396;SDS011;66045;51.622;5.526;2022-12-18T16:16:46;7.90;;;6.07;;
76396;SDS011;66045;51.622;5.526;2022-12-18T16:19:12;8.63;;;6.00;;
76396;SDS011;66045;51.622;5.526;2022-12-18T16:21:38;9.60;;;6.40;;
76396;SDS011;66045;51.622;5.526;2022-12-18T16:24:03;10.52;;;6.80;;
76396;SDS011;66045;51.622;5.526;2022-12-18T16:26:32;9.63;;;6.35;;
76396;SDS011;66045;51.622;5.526;2022-12-18T16:28:57;7.47;;;5.50;;
76396;SDS011;66045;51.622;5.526;2022-12-18T16:31:22;8.30;;;6.25;;
76396;SDS011;66045;51.622;5.526;2022-12-18T16:33:48;8.77;;;6.25;;
76396;SDS011;66045;51.622;5.526;2022-12-18T16:36:13;10.18;;;5.93;;
76396;SDS011;66045;51.622;5.526;2022-12-18T16:38:38;7.78;;;5.78;;
76396;SDS011;66045;51.622;5.526;2022-12-18T16:41:17;8.85;;;6.10;;
76396;SDS011;66045;51.622;5.526;2022-12-18T16:43:56;8.85;;;5.88;;
76396;SDS011;66045;51.622;5.526;2022-12-18T16:46:21;8.95;;;5.75;;
76396;SDS011;66045;51.622;5.526;2022-12-18T16:48:46;9.82;;;6.43;;
76396;SDS011;66045;51.622;5.526;2022-12-18T16:51:12;10.77;;;7.07;;
76396;SDS011;66045;51.622;5.526;2022-12-18T16:53:37;9.93;;;6.85;;
76396;SDS011;66045;51.622;5.526;2022-12-18T16:56:02;8.52;;;7.00;;
76396;SDS011;66045;51.622;5.526;2022-12-18T16:58:28;11.10;;;7.35;;
76396;SDS011;66045;51.622;5.526;2022-12-18T17:00:53;9.10;;;6.70;;
76396;SDS011;66045;51.622;5.526;2022-12-18T17:03:18;12.13;;;7.97;;
76396;SDS011;66045;51.622;5.526;2022-12-18T17:05:44;9.77;;;7.05;;
76396;SDS011;66045;51.622;5.526;2022-12-18T17:08:09;10.63;;;7.78;;